createdAt,value
2022-10-14T00:01:33.034Z,10.30
2022-10-14T00:04:02.350Z,10.20
2022-10-14T00:06:34.280Z,10.30
2022-10-14T00:09:06.801Z,10.30
2022-10-14T00:11:39.059Z,10.40
2022-10-14T00:14:11.653Z,10.30
2022-10-14T00:16:44.383Z,10.40
2022-10-14T00:19:15.722Z,10.30
2022-10-14T00:21:46.959Z,10.30
2022-10-14T00:24:18.919Z,10.20
2022-10-14T00:26:49.084Z,10.30
2022-10-14T00:29:19.831Z,10.20
2022-10-14T00:31:51.780Z,10.10
2022-10-14T00:34:20.931Z,10.10
2022-10-14T00:36:49.673Z,10.20
2022-10-14T00:39:20.778Z,10.20
2022-10-14T00:41:50.782Z,10.30
2022-10-14T00:47:01.919Z,10.30
2022-10-14T00:49:35.278Z,10.30
2022-10-14T00:52:10.168Z,10.30
2022-10-14T00:54:45.280Z,10.30
2022-10-14T00:57:15.205Z,10.30
2022-10-14T00:59:43.907Z,10.30
2022-10-14T01:02:13.996Z,10.20
2022-10-14T01:04:46.680Z,10.30
2022-10-14T01:07:33.049Z,10.30
2022-10-14T01:10:15.018Z,10.20
2022-10-14T01:13:06.151Z,10.20
2022-10-14T01:15:45.624Z,10.20
2022-10-14T01:18:38.257Z,10.30
2022-10-14T01:21:19.277Z,10.30
2022-10-14T01:24:41.784Z,10.30
2022-10-14T01:27:55.259Z,10.40
2022-10-14T01:30:27.835Z,10.40
2022-10-14T01:33:12.847Z,10.40
2022-10-14T01:36:01.186Z,10.40
2022-10-14T01:38:35.956Z,10.30
2022-10-14T01:41:15.323Z,10.30
2022-10-14T01:43:49.699Z,10.30
2022-10-14T01:46:24.016Z,10.40
2022-10-14T01:48:59.404Z,10.30
2022-10-14T01:51:35.902Z,10.30
2022-10-14T01:54:11.263Z,10.30
2022-10-14T01:56:42.739Z,10.40
2022-10-14T01:59:16.331Z,10.40
2022-10-14T02:01:46.383Z,10.40
2022-10-14T02:04:19.646Z,10.40
2022-10-14T02:06:58.956Z,10.40
2022-10-14T02:09:37.425Z,10.30
2022-10-14T02:12:23.139Z,10.40
2022-10-14T02:15:11.154Z,10.40
2022-10-14T02:17:55.184Z,10.40
2022-10-14T02:20:33.289Z,10.40
2022-10-14T02:23:14.760Z,10.40
2022-10-14T02:25:47.986Z,10.40
2022-10-14T02:28:21.930Z,10.40
2022-10-14T02:30:57.082Z,10.40
2022-10-14T02:33:37.816Z,10.40
2022-10-14T02:36:13.568Z,10.40
2022-10-14T02:38:44.604Z,10.40
2022-10-14T02:41:20.361Z,10.40
2022-10-14T02:43:53.006Z,10.40
2022-10-14T02:46:23.945Z,10.30
2022-10-14T02:48:53.986Z,10.40
2022-10-14T02:51:22.624Z,10.40
2022-10-14T02:53:51.353Z,10.40
2022-10-14T02:56:20.651Z,10.40
2022-10-14T02:58:49.398Z,10.40
2022-10-14T03:01:18.448Z,10.50
2022-10-14T03:03:47.215Z,10.50
2022-10-14T03:06:17.636Z,10.50
2022-10-14T03:08:48.195Z,10.50
2022-10-14T03:11:17.132Z,10.50
2022-10-14T03:13:46.352Z,10.50
2022-10-14T03:16:15.107Z,10.50
2022-10-14T03:18:46.728Z,10.50
2022-10-14T03:21:24.771Z,10.50
2022-10-14T03:23:54.184Z,10.50
2022-10-14T03:26:31.289Z,10.50
2022-10-14T03:29:00.006Z,10.50
2022-10-14T03:31:43.260Z,10.50
2022-10-14T03:34:31.780Z,10.50
2022-10-14T03:37:08.924Z,10.50
2022-10-14T03:39:45.997Z,10.50
2022-10-14T03:42:16.443Z,10.60
2022-10-14T03:44:49.181Z,10.60
2022-10-14T03:47:28.230Z,10.50
2022-10-14T03:49:56.922Z,10.50
2022-10-14T03:52:33.384Z,10.50
2022-10-14T03:55:08.849Z,10.50
2022-10-14T03:57:37.533Z,10.50
2022-10-14T04:00:09.758Z,10.50
2022-10-14T04:05:22.067Z,10.50
2022-10-14T04:07:52.134Z,10.50
2022-10-14T04:10:20.040Z,10.50
2022-10-14T04:12:54.888Z,10.50
2022-10-14T04:15:32.204Z,10.60
2022-10-14T04:18:15.902Z,10.60
2022-10-14T04:20:47.338Z,10.60
2022-10-14T04:23:18.081Z,10.60
2022-10-14T04:25:48.987Z,10.50
2022-10-14T04:28:18.339Z,10.50
2022-10-14T04:30:57.905Z,10.60
2022-10-14T04:33:32.551Z,10.50
2022-10-14T04:36:11.286Z,10.60
2022-10-14T04:38:42.638Z,10.60
2022-10-14T04:41:12.883Z,10.60
2022-10-14T04:43:47.900Z,10.60
2022-10-14T04:46:27.207Z,10.60
2022-10-14T04:48:56.487Z,10.60
2022-10-14T04:51:32.626Z,10.60
2022-10-14T04:54:18.516Z,10.60
2022-10-14T04:56:52.179Z,10.60
2022-10-14T04:59:21.412Z,10.60
2022-10-14T05:02:08.314Z,10.60
2022-10-14T05:04:45.248Z,10.60
2022-10-14T05:07:16.676Z,10.60
2022-10-14T05:09:50.373Z,10.60
2022-10-14T05:12:29.476Z,10.60
2022-10-14T05:15:01.806Z,10.60
2022-10-14T05:17:37.957Z,10.60
2022-10-14T05:20:09.137Z,10.60
2022-10-14T05:22:42.652Z,10.50
2022-10-14T05:25:11.778Z,10.50
2022-10-14T05:27:41.141Z,10.60
2022-10-14T05:30:12.087Z,10.60
2022-10-14T05:32:46.579Z,10.60
2022-10-14T05:35:15.508Z,10.60
2022-10-14T05:37:45.574Z,10.60
2022-10-14T05:40:14.330Z,10.60
2022-10-14T05:42:42.930Z,10.60
2022-10-14T05:45:12.502Z,10.60
2022-10-14T05:47:48.260Z,10.70
2022-10-14T05:50:20.214Z,10.60
2022-10-14T05:52:51.286Z,10.60
2022-10-14T05:55:25.879Z,10.60
2022-10-14T05:57:59.568Z,10.60
2022-10-14T06:00:34.846Z,10.60
2022-10-14T06:03:11.469Z,10.70
2022-10-14T06:05:41.069Z,10.70
2022-10-14T06:08:11.814Z,10.70
2022-10-14T06:10:40.723Z,10.60
2022-10-14T06:13:09.387Z,10.70
2022-10-14T06:15:40.475Z,10.70
2022-10-14T06:18:09.154Z,10.70
2022-10-14T06:20:37.939Z,10.70
2022-10-14T06:23:06.901Z,10.70
2022-10-14T06:25:38.070Z,10.80
2022-10-14T06:28:07.299Z,10.80
2022-10-14T06:30:36.100Z,10.80
2022-10-14T06:33:04.805Z,10.80
2022-10-14T06:35:33.531Z,10.80
2022-10-14T06:38:02.187Z,10.80
2022-10-14T06:40:31.006Z,10.80
2022-10-14T06:43:01.338Z,10.90
2022-10-14T06:45:30.210Z,10.90
2022-10-14T06:47:59.432Z,10.90
2022-10-14T06:50:28.131Z,10.90
2022-10-14T06:53:10.821Z,10.90
2022-10-14T06:55:39.429Z,10.90
2022-10-14T06:58:09.415Z,10.90
2022-10-14T07:00:38.321Z,10.90
2022-10-14T07:03:07.100Z,11.00
2022-10-14T07:05:36.862Z,11.00
2022-10-14T07:08:06.178Z,11.00
2022-10-14T07:10:35.968Z,11.00
2022-10-14T07:13:04.642Z,11.10
2022-10-14T07:15:36.222Z,11.10
2022-10-14T07:18:06.633Z,11.10
2022-10-14T07:20:36.011Z,11.20
2022-10-14T07:23:04.637Z,11.20
2022-10-14T07:25:34.080Z,11.20
2022-10-14T07:28:02.698Z,11.20
2022-10-14T07:30:31.568Z,11.30
2022-10-14T07:33:02.271Z,11.30
2022-10-14T07:35:30.987Z,11.30
2022-10-14T07:38:01.157Z,11.30
2022-10-14T07:40:30.106Z,11.40
2022-10-14T07:42:58.671Z,11.40
2022-10-14T07:45:27.267Z,11.40
2022-10-14T07:47:55.923Z,11.50
2022-10-14T07:50:25.984Z,11.50
2022-10-14T07:52:58.891Z,11.50
2022-10-14T07:55:29.560Z,11.50
2022-10-14T07:57:58.152Z,11.60
2022-10-14T08:00:26.844Z,11.60
2022-10-14T08:02:55.972Z,11.60
2022-10-14T08:05:37.773Z,11.60
2022-10-14T08:08:07.467Z,11.70
2022-10-14T08:10:36.982Z,11.70
2022-10-14T08:13:06.360Z,11.70
2022-10-14T08:15:38.812Z,11.70
2022-10-14T08:18:08.390Z,11.80
2022-10-14T08:20:38.775Z,11.90
2022-10-14T08:23:07.388Z,11.90
2022-10-14T08:25:37.726Z,11.90
2022-10-14T08:28:06.540Z,11.90
2022-10-14T08:30:35.214Z,12.00
2022-10-14T08:33:03.910Z,12.00
2022-10-14T08:35:32.518Z,12.00
2022-10-14T08:38:03.480Z,12.00
2022-10-14T08:40:49.114Z,12.00
2022-10-14T08:43:31.286Z,12.10
2022-10-14T08:46:12.549Z,12.10
2022-10-14T08:48:41.864Z,12.10
2022-10-14T08:51:15.505Z,12.20
2022-10-14T08:53:51.545Z,12.20
2022-10-14T08:56:21.849Z,12.30
2022-10-14T08:58:54.499Z,12.30
2022-10-14T09:01:29.038Z,12.40
2022-10-14T09:04:01.911Z,12.40
2022-10-14T09:06:34.624Z,12.40
2022-10-14T09:09:15.479Z,12.40
2022-10-14T09:11:49.358Z,12.60
2022-10-14T09:14:22.846Z,12.60
2022-10-14T09:16:58.012Z,12.70
2022-10-14T09:19:33.381Z,12.70
2022-10-14T09:22:03.423Z,12.70
2022-10-14T09:24:36.681Z,12.70
2022-10-14T09:27:08.594Z,12.60
2022-10-14T09:29:47.972Z,12.70
2022-10-14T09:32:28.370Z,12.70
2022-10-14T09:34:58.696Z,12.70
2022-10-14T09:37:30.909Z,12.80
2022-10-14T09:40:11.455Z,12.80
2022-10-14T09:42:49.876Z,12.90
2022-10-14T09:45:22.652Z,12.90
2022-10-14T09:47:56.710Z,12.90
2022-10-14T09:50:32.049Z,13.00
2022-10-14T09:53:09.248Z,13.20
2022-10-14T09:55:49.397Z,13.20
2022-10-14T09:58:26.656Z,13.30
2022-10-14T10:00:59.299Z,13.50
2022-10-14T10:03:32.613Z,13.60
2022-10-14T10:06:05.653Z,13.90
2022-10-14T10:08:35.311Z,14.00
2022-10-14T10:11:10.531Z,14.20
2022-10-14T10:13:46.232Z,14.30
2022-10-14T10:16:26.882Z,14.50
2022-10-14T10:18:57.426Z,14.60
2022-10-14T10:21:29.861Z,14.60
2022-10-14T10:24:01.485Z,14.60
2022-10-14T10:26:33.903Z,14.60
2022-10-14T10:29:06.132Z,14.80
2022-10-14T10:32:12.215Z,14.80
2022-10-14T10:35:09.131Z,14.70
2022-10-14T10:37:50.460Z,14.70
2022-10-14T10:40:53.141Z,14.60
2022-10-14T10:43:53.617Z,14.70
2022-10-14T10:47:00.868Z,14.80
2022-10-14T10:50:08.707Z,14.80
2022-10-14T10:53:01.338Z,14.70
2022-10-14T10:55:40.759Z,14.50
2022-10-14T10:58:26.345Z,14.50
2022-10-14T11:01:08.169Z,14.50
2022-10-14T11:03:57.830Z,14.50
2022-10-14T11:06:55.951Z,14.50
2022-10-14T11:09:58.160Z,14.50
2022-10-14T11:12:35.890Z,14.50
2022-10-14T11:15:23.695Z,14.60
2022-10-14T11:18:01.526Z,14.50
2022-10-14T11:20:44.735Z,14.60
2022-10-14T11:23:41.418Z,14.60
2022-10-14T11:26:29.915Z,14.70
2022-10-14T11:29:18.938Z,14.70
2022-10-14T11:32:04.116Z,14.70
2022-10-14T11:34:49.870Z,14.70
2022-10-14T11:37:35.955Z,14.70
2022-10-14T11:40:21.269Z,14.70
2022-10-14T11:43:10.362Z,14.70
2022-10-14T11:45:50.058Z,14.70
2022-10-14T11:48:31.259Z,14.80
2022-10-14T11:51:12.683Z,14.80
2022-10-14T11:54:04.926Z,14.80
2022-10-14T11:56:43.521Z,14.80
2022-10-14T11:59:55.928Z,14.70
2022-10-14T12:02:42.055Z,14.80
2022-10-14T12:05:22.762Z,14.80
2022-10-14T12:08:10.910Z,14.80
2022-10-14T12:12:15.810Z,14.80
2022-10-14T12:14:50.226Z,14.80
2022-10-14T12:17:27.349Z,14.80
2022-10-14T12:19:57.071Z,14.80
2022-10-14T12:22:30.570Z,14.80
2022-10-14T12:25:07.476Z,14.80
2022-10-14T12:27:37.957Z,14.80
2022-10-14T12:30:37.083Z,14.90
2022-10-14T12:33:10.653Z,14.90
2022-10-14T12:36:00.975Z,14.90
2022-10-14T12:38:34.626Z,15.00
2022-10-14T12:41:43.618Z,15.10
2022-10-14T12:44:18.768Z,15.00
2022-10-14T12:46:53.219Z,15.00
2022-10-14T12:49:31.412Z,15.10
2022-10-14T12:52:04.613Z,15.10
2022-10-14T12:54:35.739Z,15.10
2022-10-14T12:57:20.729Z,15.10
2022-10-14T12:59:53.787Z,15.10
2022-10-14T13:02:35.570Z,15.10
2022-10-14T13:05:10.332Z,15.10
2022-10-14T13:07:46.330Z,15.10
2022-10-14T13:10:50.696Z,15.10
2022-10-14T13:14:21.108Z,15.20
2022-10-14T13:17:01.347Z,15.20
2022-10-14T13:19:46.738Z,15.30
2022-10-14T13:22:43.719Z,15.30
2022-10-14T13:25:21.867Z,15.40
2022-10-14T13:28:17.056Z,15.40
2022-10-14T13:31:04.985Z,15.40
2022-10-14T13:33:43.689Z,15.40
2022-10-14T13:36:23.774Z,15.40
2022-10-14T13:38:59.815Z,15.40
2022-10-14T13:41:31.575Z,15.50
2022-10-14T13:44:03.502Z,15.50
2022-10-14T13:46:42.503Z,15.50
2022-10-14T13:49:21.006Z,15.50
2022-10-14T13:51:54.549Z,15.50
2022-10-14T13:54:25.999Z,15.50
2022-10-14T13:57:34.735Z,15.60
2022-10-14T14:02:49.044Z,15.60
2022-10-14T14:05:27.725Z,15.60
2022-10-14T14:11:17.299Z,15.60
2022-10-14T14:14:01.063Z,15.60
2022-10-14T14:16:39.531Z,15.60
2022-10-14T14:19:20.937Z,15.60
2022-10-14T14:21:51.489Z,15.60
2022-10-14T14:24:25.402Z,15.50
2022-10-14T14:26:56.921Z,15.50
2022-10-14T14:29:30.262Z,15.50
2022-10-14T14:32:09.026Z,15.50
2022-10-14T14:34:44.065Z,15.50
2022-10-14T14:37:43.934Z,15.50
2022-10-14T14:40:20.791Z,15.40
2022-10-14T14:42:53.960Z,15.40
2022-10-14T14:45:26.671Z,15.40
2022-10-14T14:47:59.424Z,15.40
2022-10-14T14:50:38.340Z,15.30
2022-10-14T14:53:16.083Z,15.20
2022-10-14T14:55:58.770Z,15.20
2022-10-14T14:58:35.509Z,15.30
2022-10-14T15:01:08.617Z,15.20
2022-10-14T15:04:12.258Z,15.20
2022-10-14T15:06:51.888Z,15.10
2022-10-14T15:09:27.765Z,15.10
2022-10-14T15:11:59.027Z,15.10
2022-10-14T15:14:35.444Z,15.20
2022-10-14T15:17:06.847Z,15.10
2022-10-14T15:19:38.790Z,15.20
2022-10-14T15:22:29.646Z,15.10
2022-10-14T15:25:03.958Z,15.10
2022-10-14T15:27:49.423Z,15.10
2022-10-14T15:30:27.332Z,15.10
2022-10-14T15:33:00.154Z,15.10
2022-10-14T15:35:30.760Z,15.10
2022-10-14T15:38:00.890Z,15.00
2022-10-14T15:40:32.905Z,15.10
2022-10-14T15:43:01.597Z,15.00
2022-10-14T15:45:30.414Z,15.00
2022-10-14T15:48:05.154Z,14.90
2022-10-14T15:50:36.228Z,14.90
2022-10-14T15:53:06.323Z,14.90
2022-10-14T15:55:35.977Z,14.90
2022-10-14T15:58:09.365Z,14.90
2022-10-14T16:00:38.352Z,14.90
2022-10-14T16:03:07.786Z,14.90
2022-10-14T16:05:38.733Z,14.80
2022-10-14T16:08:15.314Z,14.80
2022-10-14T16:10:47.283Z,14.80
2022-10-14T16:13:17.107Z,14.70
2022-10-14T16:15:50.425Z,14.70
2022-10-14T16:18:22.384Z,14.70
2022-10-14T16:20:53.597Z,14.70
2022-10-14T16:23:29.650Z,14.70
2022-10-14T16:26:02.013Z,14.60
2022-10-14T16:28:31.134Z,14.50
2022-10-14T16:31:01.193Z,14.50
2022-10-14T16:33:30.154Z,14.50
2022-10-14T16:36:00.211Z,14.50
2022-10-14T16:38:30.792Z,14.50
2022-10-14T16:41:02.316Z,14.40
2022-10-14T16:43:31.602Z,14.40
2022-10-14T16:46:03.654Z,14.40
2022-10-14T16:48:34.199Z,14.40
2022-10-14T16:51:03.379Z,14.30
2022-10-14T16:53:45.103Z,14.20
2022-10-14T16:56:35.017Z,14.20
2022-10-14T16:59:05.154Z,14.20
2022-10-14T17:01:33.974Z,14.10
2022-10-14T17:04:03.965Z,14.10
2022-10-14T17:06:33.542Z,14.20
2022-10-14T17:09:04.437Z,14.20
2022-10-14T17:11:33.767Z,14.10
2022-10-14T17:14:03.924Z,14.00
2022-10-14T17:16:33.381Z,14.10
2022-10-14T17:19:02.884Z,14.00
2022-10-14T17:21:31.952Z,14.00
2022-10-14T17:24:03.520Z,13.90
2022-10-14T17:26:35.056Z,14.00
2022-10-14T17:29:04.653Z,13.90
2022-10-14T17:31:34.404Z,14.00
2022-10-14T17:34:05.317Z,14.00
2022-10-14T17:36:34.647Z,13.80
2022-10-14T17:39:06.345Z,13.80
2022-10-14T17:41:36.137Z,13.80
2022-10-14T17:44:06.744Z,13.90
2022-10-14T17:46:37.630Z,13.90
2022-10-14T17:49:10.703Z,13.90
2022-10-14T17:51:40.875Z,13.80
2022-10-14T17:54:13.392Z,13.80
2022-10-14T17:56:44.938Z,13.80
2022-10-14T17:59:14.483Z,13.70
2022-10-14T18:02:01.582Z,13.80
2022-10-14T18:04:32.673Z,13.70
2022-10-14T18:07:02.386Z,13.70
2022-10-14T18:09:34.169Z,13.70
2022-10-14T18:12:08.908Z,13.60
2022-10-14T18:14:41.142Z,13.60
2022-10-14T18:17:12.474Z,13.60
2022-10-14T18:19:45.031Z,13.50
2022-10-14T18:22:17.917Z,13.60
2022-10-14T18:24:49.137Z,13.50
2022-10-14T18:27:18.196Z,13.50
2022-10-14T18:29:47.420Z,13.50
2022-10-14T18:37:22.051Z,13.40
2022-10-14T18:39:49.495Z,13.40
2022-10-14T18:42:20.079Z,13.40
2022-10-14T18:44:49.912Z,13.30
2022-10-14T18:47:19.374Z,13.20
2022-10-14T18:49:49.796Z,13.20
2022-10-14T18:52:23.031Z,13.30
2022-10-14T18:54:53.685Z,13.30
2022-10-14T18:57:24.142Z,13.20
2022-10-14T18:59:53.584Z,13.20
2022-10-14T19:02:22.936Z,13.20
2022-10-14T19:04:52.782Z,13.20
2022-10-14T19:07:21.430Z,13.20
2022-10-14T19:09:51.901Z,13.20
2022-10-14T19:12:42.759Z,13.20
2022-10-14T19:15:12.635Z,13.10
2022-10-14T19:17:42.930Z,13.20
2022-10-14T19:20:12.115Z,13.10
2022-10-14T19:22:44.889Z,13.10
2022-10-14T19:25:13.597Z,13.10
2022-10-14T19:27:43.980Z,13.10
2022-10-14T19:30:13.577Z,13.10
2022-10-14T19:32:42.215Z,13.10
2022-10-14T19:35:11.055Z,13.10
2022-10-14T19:37:39.678Z,13.10
2022-10-14T19:40:10.136Z,13.00
2022-10-14T19:42:38.851Z,13.10
2022-10-14T19:45:10.190Z,13.10
2022-10-14T19:47:39.223Z,13.10
2022-10-14T19:50:09.683Z,13.10
2022-10-14T19:52:38.263Z,13.00
2022-10-14T19:55:08.604Z,13.00
2022-10-14T19:57:37.243Z,13.00
2022-10-14T20:00:09.059Z,13.00
2022-10-14T20:05:08.395Z,13.00
2022-10-14T20:07:37.049Z,13.00
2022-10-14T20:10:07.009Z,13.00
2022-10-14T20:12:35.685Z,13.00
2022-10-14T20:15:04.699Z,13.00
2022-10-14T20:17:35.126Z,13.00
2022-10-14T20:20:03.789Z,13.00
2022-10-14T20:22:33.818Z,13.00
2022-10-14T20:25:02.395Z,13.00
2022-10-14T20:27:31.052Z,13.00
2022-10-14T20:29:59.795Z,12.90
2022-10-14T20:32:28.408Z,12.90
2022-10-14T20:35:01.809Z,12.90
2022-10-14T20:37:33.028Z,13.00
2022-10-14T20:40:02.066Z,12.90
2022-10-14T20:42:30.692Z,13.00
2022-10-14T20:44:59.267Z,13.00
2022-10-14T20:47:27.862Z,13.00
2022-10-14T20:49:57.967Z,12.90
2022-10-14T20:52:26.704Z,13.00
2022-10-14T20:54:55.339Z,13.00
2022-10-14T20:57:25.000Z,13.00
2022-10-14T20:59:53.857Z,12.90
2022-10-14T21:02:23.335Z,12.90
2022-10-14T21:04:54.110Z,12.90
2022-10-14T21:07:24.705Z,12.90
2022-10-14T21:09:53.648Z,12.90
2022-10-14T21:12:22.636Z,12.90
2022-10-14T21:14:51.615Z,12.90
2022-10-14T21:17:20.411Z,12.90
2022-10-14T21:19:50.165Z,12.90
2022-10-14T21:22:18.799Z,12.80
2022-10-14T21:24:48.803Z,12.90
2022-10-14T21:27:17.524Z,12.90
2022-10-14T21:29:46.236Z,12.90
2022-10-14T21:32:14.948Z,12.90
2022-10-14T21:34:43.537Z,12.90
2022-10-14T21:37:12.197Z,13.00
2022-10-14T21:39:40.900Z,13.00
2022-10-14T21:42:11.161Z,13.00
2022-10-14T21:44:39.832Z,13.00
2022-10-14T21:47:08.437Z,13.00
2022-10-14T21:49:37.168Z,13.00
2022-10-14T21:52:06.185Z,13.00
2022-10-14T21:54:34.850Z,13.10
2022-10-14T21:57:03.473Z,13.10
2022-10-14T21:59:33.460Z,13.10
2022-10-14T22:02:02.158Z,13.10
2022-10-14T22:04:34.510Z,13.10
2022-10-14T22:07:06.686Z,13.10
2022-10-14T22:09:35.302Z,13.10
2022-10-14T22:12:04.935Z,13.10
2022-10-14T22:14:34.981Z,13.10
2022-10-14T22:17:03.687Z,13.10
2022-10-14T22:19:32.570Z,13.10
2022-10-14T22:22:03.323Z,13.00
2022-10-14T22:24:32.053Z,13.10
2022-10-14T22:27:00.704Z,13.10
2022-10-14T22:29:29.469Z,13.10
2022-10-14T22:31:59.494Z,13.10
2022-10-14T22:34:28.034Z,13.10
2022-10-14T22:36:56.739Z,13.10
2022-10-14T22:39:27.159Z,13.10
2022-10-14T22:41:55.765Z,13.10
2022-10-14T22:44:24.566Z,13.10
2022-10-14T22:46:54.621Z,13.10
2022-10-14T22:49:24.740Z,13.10
2022-10-14T22:51:56.613Z,13.10
2022-10-14T22:54:25.685Z,13.20
2022-10-14T22:56:54.300Z,13.20
2022-10-14T22:59:22.961Z,13.20
2022-10-14T23:01:51.766Z,13.20
2022-10-14T23:04:20.868Z,13.20
2022-10-14T23:06:51.679Z,13.10
2022-10-14T23:09:20.321Z,13.10
2022-10-14T23:11:49.014Z,13.10
2022-10-14T23:14:17.700Z,13.20
2022-10-14T23:16:46.309Z,13.10
2022-10-14T23:19:14.932Z,13.20
2022-10-14T23:21:44.624Z,13.10
2022-10-14T23:24:14.734Z,13.20
2022-10-14T23:26:43.383Z,13.10
2022-10-14T23:29:13.046Z,13.10
2022-10-14T23:31:43.490Z,13.10
2022-10-14T23:34:15.157Z,13.10
2022-10-14T23:36:44.277Z,13.10
2022-10-14T23:39:14.480Z,13.10
2022-10-14T23:41:43.439Z,13.10
2022-10-14T23:44:13.110Z,13.10
2022-10-14T23:46:41.829Z,13.10
2022-10-14T23:49:26.024Z,13.10
2022-10-14T23:51:55.467Z,13.10
2022-10-14T23:54:25.728Z,13.10
2022-10-14T23:56:54.405Z,13.10
2022-10-14T23:59:23.059Z,13.10
